»·PEaware :: N20946 KPMD-KVCV

N20946 :: KPMD-KVCV

FLIGHT INFORMATION

Flight Status: Arrived
Operator: Privately registered:
United States
More flights under this callsign
Pilot: Anonymous 27169 (27169)
Aircraft: CESSNA 182 SKYLANE
(C182)
More flights by this aircraft type
Origin: KPMD Palmdale AF Plant 42
United States
Destination: KVCV Socal Logistics
United States
More flights between these airports :: More routes between these airports
Route: PMD V386 APLES
File this flight plan on PilotEdge
Remarks: ODP from RWY 22
Altitude:
(Current/Filed)
7,000ft
Speed:
(Current/Filed)
135kts
Departed: 04-May-21 04:43 PM
Arrived: 04-May-21 05:39 PM
Distance/Time
Traveled:
35nm/0:55
Distance/Time
To Go:
Arrived

Flight Plot

Page will automatically refresh every two minutes.

Flight plan parsing failed; only flown route is shown


Map Options




Map Legend


Flown Route
Filed Route
Departure Airport
Arrival Airport
Navaid (VOR, NDB)
Fix

Horizontal Profiles

Position Reports

Time Latitude Longitude Heading Altitude Ground
Speed
04-May-21 16:25 34.638855 -118.067888 269 2548ft 0kts
04-May-21 16:26 34.638855 -118.067888 269 2548ft 0kts
04-May-21 16:27 34.638855 -118.067888 269 2548ft 0kts
04-May-21 16:28 34.638855 -118.067888 269 2548ft 0kts
04-May-21 16:29 34.638855 -118.067888 269 2548ft 0kts
04-May-21 16:30 34.638855 -118.067888 269 2548ft 0kts
04-May-21 16:31 34.638855 -118.067888 269 2548ft 0kts
04-May-21 16:32 34.638855 -118.067888 269 2548ft 0kts
04-May-21 16:33 34.638855 -118.067888 269 2548ft 0kts
04-May-21 16:34 34.638855 -118.067888 270 2548ft 0kts
04-May-21 16:35 34.638855 -118.067888 269 2548ft 0kts
04-May-21 16:36 34.638855 -118.067888 269 2548ft 0kts
04-May-21 16:37 34.637152 -118.060599 287 2548ft 4kts
04-May-21 16:38 34.637403 -118.060835 146 2548ft 0kts
04-May-21 16:39 34.637403 -118.060835 146 2548ft 0kts
04-May-21 16:40 34.637403 -118.060835 146 2548ft 0kts
04-May-21 16:41 34.637403 -118.060835 146 2548ft 0kts
04-May-21 16:42 34.632924 -118.070615 259 3001ft 78kts
04-May-21 16:43 34.650859 -118.086981 287 4320ft 99kts
04-May-21 16:44 34.670102 -118.111154 312 5769ft 108kts
04-May-21 16:45 34.689097 -118.140153 314 6929ft 129kts
04-May-21 16:46 34.719228 -118.177082 312 7063ft 161kts
04-May-21 16:47 34.748227 -118.218749 311 7041ft 162kts
04-May-21 16:48 34.780555 -118.257468 317 6870ft 171kts
04-May-21 16:49 34.795997 -118.301021 224 7061ft 141kts
04-May-21 16:50 34.764630 -118.292212 114 6991ft 141kts
04-May-21 16:51 34.758143 -118.245564 111 7037ft 139kts
04-May-21 16:52 34.738767 -118.205154 125 7074ft 139kts
04-May-21 16:53 34.712936 -118.169677 138 7018ft 141kts
04-May-21 16:54 34.685742 -118.136442 124 7038ft 139kts
04-May-21 16:55 34.660834 -118.100232 141 6961ft 140kts
04-May-21 16:56 34.635711 -118.065094 130 7049ft 137kts
04-May-21 16:57 34.606403 -118.037197 114 7036ft 141kts
04-May-21 16:58 34.583717 -117.999355 139 7032ft 140kts
04-May-21 16:59 34.556614 -117.965816 131 7051ft 140kts
04-May-21 17:00 34.548061 -117.923826 61 6975ft 153kts
04-May-21 17:01 34.569496 -117.880498 64 6955ft 151kts
04-May-21 17:02 34.591132 -117.837426 62 6991ft 147kts
04-May-21 17:03 34.605377 -117.792176 89 6965ft 147kts
04-May-21 17:04 34.603170 -117.741432 92 6916ft 154kts
04-May-21 17:05 34.597761 -117.691411 92 7675ft 140kts
04-May-21 17:06 34.592256 -117.641727 95 7975ft 152kts
04-May-21 17:07 34.588805 -117.589829 94 7925ft 158kts
04-May-21 17:08 34.583106 -117.538221 94 8032ft 153kts
04-May-21 17:09 34.578233 -117.486818 91 8031ft 154kts
04-May-21 17:10 34.573201 -117.434493 91 7979ft 155kts
04-May-21 17:11 34.567745 -117.383028 95 7987ft 154kts
04-May-21 17:12 34.556999 -117.333486 121 7970ft 158kts
04-May-21 17:13 34.532421 -117.289609 122 7970ft 157kts
04-May-21 17:14 34.507625 -117.246297 123 7973ft 156kts
04-May-21 17:15 34.482728 -117.202865 125 7914ft 159kts
04-May-21 17:16 34.476173 -117.154023 81 7984ft 144kts
04-May-21 17:17 34.505366 -117.143216 324 8123ft 144kts
04-May-21 17:18 34.534767 -117.177066 321 8225ft 146kts
04-May-21 17:19 34.561947 -117.165709 98 8117ft 151kts
04-May-21 17:20 34.570264 -117.127094 15 7669ft 112kts
04-May-21 17:21 34.597115 -117.143433 332 6560ft 112kts
04-May-21 17:22 34.622496 -117.152847 356 6778ft 94kts
04-May-21 17:23 34.649303 -117.152907 357 6806ft 99kts
04-May-21 17:24 34.676008 -117.161847 335 6800ft 101kts
04-May-21 17:25 34.701509 -117.176840 337 6785ft 101kts
04-May-21 17:26 34.721258 -117.201312 307 6760ft 104kts
04-May-21 17:27 34.740505 -117.227468 319 6739ft 103kts
04-May-21 17:28 34.762496 -117.250043 321 6718ft 103kts
04-May-21 17:29 34.779202 -117.277919 288 6702ft 104kts
04-May-21 17:30 34.784723 -117.312781 281 6025ft 108kts
04-May-21 17:31 34.785565 -117.348812 235 5127ft 110kts
04-May-21 17:32 34.759248 -117.366522 199 4462ft 107kts
04-May-21 17:33 34.731011 -117.375066 190 4435ft 103kts
04-May-21 17:34 34.702606 -117.380639 190 4450ft 104kts
04-May-21 17:35 34.673432 -117.382342 183 3916ft 108kts
04-May-21 17:36 34.644869 -117.386872 189 3498ft 77kts
04-May-21 17:37 34.622311 -117.386774 183 2955ft 80kts
04-May-21 17:38 34.611118 -117.386648 161 2890ft 11kts
04-May-21 17:39 34.610539 -117.385530 89 2890ft 0kts
04-May-21 17:40 34.609607 -117.384184 181 2890ft 16kts
04-May-21 17:41 34.597898 -117.384070 180 2890ft 35kts
04-May-21 17:42 34.594119 -117.383100 135 2890ft 9kts
04-May-21 17:43 34.590955 -117.379196 135 2890ft 21kts
04-May-21 17:44 34.588035 -117.375353 119 2890ft 0kts

Navigation Log

Ident Type
Flight plan parsing failed, navigation log unavailable